Time;durP1;ratioP1;P1;durP2;ratioP2;P2;SDS_P1;SDS_P2;PMS_P1;PMS_P2;Temp;Humidity;BMP_temperature;BMP_pressure;BME280_temperature;BME280_humidity;BME280_pressure;Samples;Min_cycle;Max_cycle;Signal;HPM_P1;HPM_P2
2022/09/26 00:03:58;;;;;;;9.60;5.18;;;;;;;12.54;84.64;99664.13;10248766;28;20050;-73
2022/09/26 00:08:59;;;;;;;6.03;4.43;;;;;;;12.29;84.27;99647.84;10251186;28;20038;-74
2022/09/26 00:14:05;;;;;;;6.53;4.90;;;;;;;12.06;84.29;99659.91;10248433;28;20047;-76
2022/09/26 00:19:07;;;;;;;7.13;4.60;;;;;;;11.95;85.40;99647.59;10252249;28;20509;-73
2022/09/26 00:24:09;;;;;;;6.53;5.20;;;;;;;11.95;85.80;99659.13;10256116;28;20066;-75
2022/09/26 00:29:12;;;;;;;8.60;4.80;;;;;;;11.82;86.63;99653.25;10257414;28;20052;-75
2022/09/26 00:34:17;;;;;;;7.53;5.50;;;;;;;11.87;86.85;99650.97;10260438;28;20054;-74
2022/09/26 00:39:19;;;;;;;7.80;4.65;;;;;;;11.97;86.95;99640.31;10257255;28;20054;-77
2022/09/26 00:44:47;;;;;;;10.50;4.75;;;;;;;12.08;86.10;99636.59;10254994;28;20054;-74
2022/09/26 00:49:53;;;;;;;7.57;5.00;;;;;;;11.94;85.46;99628.09;10252235;28;20042;-76
2022/09/26 00:54:57;;;;;;;6.47;4.57;;;;;;;11.84;85.78;99628.13;10252678;28;20042;-74
2022/09/26 01:00:01;;;;;;;;;;;;;;;11.76;85.54;99629.84;10259656;28;20046;-73
2022/09/26 01:05:04;;;;;;;7.10;4.70;;;;;;;11.67;86.40;99629.72;10245821;28;19923;-73
2022/09/26 01:10:06;;;;;;;6.68;4.38;;;;;;;11.65;86.71;99617.53;10245775;28;20043;-73
2022/09/26 01:15:08;;;;;;;6.88;4.40;;;;;;;11.75;86.69;99614.81;10258238;28;20077;-73
2022/09/26 01:20:24;;;;;;;8.35;4.43;;;;;;;11.67;85.92;99615.56;10252400;28;20043;-73
2022/09/26 01:25:45;;;;;;;6.13;4.70;;;;;;;11.41;86.65;99605.53;10255807;28;20053;-75
2022/09/26 01:31:07;;;;;;;5.78;4.65;;;;;;;11.21;87.54;99588.75;10247216;28;20035;-73
2022/09/26 01:36:51;;;;;;;6.63;4.78;;;;;;;11.14;88.07;99590.31;10260064;28;20055;-76
2022/09/26 01:42:05;;;;;;;4.78;4.28;;;;;;;11.15;87.96;99581.31;10286616;28;20103;-78
2022/09/26 01:47:24;;;;;;;5.93;4.80;;;;;;;11.30;89.28;99585.25;10292360;28;20047;-76
2022/09/26 01:52:36;;;;;;;6.57;3.72;;;;;;;11.40;87.19;99582.53;10276172;28;20062;-73
2022/09/26 01:57:47;;;;;;;6.68;4.32;;;;;;;11.40;86.96;99569.22;10253921;28;20058;-73
2022/09/26 02:02:49;;;;;;;5.25;3.97;;;;;;;11.37;86.98;99571.34;10250547;28;20494;-74
2022/09/26 02:08:16;;;;;;;6.50;4.30;;;;;;;11.26;86.72;99578.50;10247912;28;20047;-74
2022/09/26 02:14:05;;;;;;;6.70;4.72;;;;;;;11.00;89.05;99570.28;10261843;28;20067;-74
2022/09/26 02:19:28;;;;;;;5.90;4.93;;;;;;;10.86;90.50;99560.91;10255455;28;20039;-77
2022/09/26 02:24:30;;;;;;;6.95;4.32;;;;;;;10.89;90.81;99557.97;10263766;28;20047;-73
2022/09/26 02:29:32;;;;;;;5.70;4.78;;;;;;;10.90;91.02;99545.50;10302173;28;20042;-78
2022/09/26 02:34:34;;;;;;;6.82;4.57;;;;;;;10.89;90.89;99552.66;10284201;28;20091;-74
2022/09/26 02:39:36;;;;;;;12.20;5.18;;;;;;;10.73;91.88;99541.75;10259171;28;20056;-78
2022/09/26 02:44:56;;;;;;;6.82;5.40;;;;;;;10.71;92.40;99531.25;10287368;28;20059;-75
2022/09/26 02:49:57;;;;;;;8.48;5.32;;;;;;;10.62;93.46;99526.78;10285602;28;20055;-76
2022/09/26 02:55:05;;;;;;;8.45;5.45;;;;;;;10.58;92.90;99528.88;10292858;28;20055;-73
2022/09/26 03:00:27;;;;;;;7.63;4.88;;;;;;;10.73;93.55;99523.09;10284466;28;20053;-73
2022/09/26 03:05:30;;;;;;;8.40;4.75;;;;;;;10.57;91.99;99513.88;10272396;28;20043;-73
2022/09/26 03:10:33;;;;;;;7.82;5.05;;;;;;;10.40;93.51;99506.59;10254572;28;20366;-74
2022/09/26 03:15:37;;;;;;;7.05;6.00;;;;;;;10.44;93.96;99497.38;10259073;28;20046;-76
2022/09/26 03:20:40;;;;;;;6.23;4.70;;;;;;;10.34;94.29;99497.38;10258474;28;20075;-73
2022/09/26 03:25:41;;;;;;;8.35;5.68;;;;;;;10.43;92.86;99485.91;10266794;28;20050;-73
2022/09/26 03:30:43;;;;;;;7.38;5.00;;;;;;;10.41;93.17;99487.00;10254462;28;20069;-73
2022/09/26 03:35:44;;;;;;;5.88;5.20;;;;;;;10.39;94.41;99491.66;10259430;28;20502;-73
2022/09/26 03:40:45;;;;;;;9.93;5.15;;;;;;;10.45;93.33;99480.44;10251398;28;20502;-74
2022/09/26 03:45:47;;;;;;;7.35;5.25;;;;;;;10.51;92.60;99461.25;10259818;28;20055;-73
2022/09/26 03:50:48;;;;;;;9.35;5.25;;;;;;;10.51;91.92;99461.25;10291019;28;20070;-78
2022/09/26 03:55:49;;;;;;;6.68;5.20;;;;;;;10.33;93.27;99452.25;10304813;28;20126;-78
2022/09/26 04:00:51;;;;;;;6.40;4.95;;;;;;;10.32;93.97;99450.59;10307036;28;20039;-80
2022/09/26 04:05:52;;;;;;;8.32;5.53;;;;;;;10.22;93.91;99434.63;10298697;28;20078;-77
2022/09/26 04:11:00;;;;;;;8.90;5.30;;;;;;;10.23;94.29;99413.22;10297349;28;20045;-76
2022/09/26 04:16:04;;;;;;;6.15;5.45;;;;;;;10.31;93.93;99411.66;10286865;28;20054;-75
2022/09/26 04:21:09;;;;;;;7.53;5.72;;;;;;;10.23;94.54;99412.38;10266639;28;20051;-73
2022/09/26 04:26:13;;;;;;;6.45;5.85;;;;;;;10.29;95.06;99418.97;10257407;28;20053;-79
2022/09/26 04:31:25;;;;;;;8.20;6.70;;;;;;;10.37;94.20;99403.13;10268181;28;20054;-74
2022/09/26 04:36:26;;;;;;;7.90;6.85;;;;;;;10.31;94.89;99403.69;10277489;28;20046;-77
2022/09/26 04:41:28;;;;;;;7.95;7.13;;;;;;;10.24;95.31;99395.44;10271449;28;20058;-76
2022/09/26 04:46:30;;;;;;;9.98;7.53;;;;;;;10.35;95.39;99386.50;10252076;28;20062;-75
2022/09/26 04:51:31;;;;;;;8.25;7.45;;;;;;;10.43;95.25;99383.94;10254020;28;20378;-76
2022/09/26 04:56:33;;;;;;;8.25;7.45;;;;;;;10.37;94.78;99385.38;10260395;28;20063;-72
2022/09/26 05:01:34;;;;;;;9.05;7.72;;;;;;;10.35;95.19;99382.00;10254951;28;20054;-75
2022/09/26 05:06:36;;;;;;;13.40;8.35;;;;;;;10.22;95.22;99369.00;10265482;28;20059;-76
2022/09/26 05:11:37;;;;;;;9.63;7.90;;;;;;;10.23;95.71;99378.63;10265413;28;20064;-74
2022/09/26 05:16:38;;;;;;;9.88;8.50;;;;;;;10.25;95.68;99375.81;10275161;28;20061;-73
2022/09/26 05:21:41;;;;;;;10.45;7.50;;;;;;;10.25;95.58;99360.72;10259582;28;20054;-75
2022/09/26 05:26:46;;;;;;;8.52;7.13;;;;;;;10.33;94.79;99356.47;10235453;28;20057;-74
2022/09/26 05:31:47;;;;;;;;;;;;;;;10.32;94.60;99360.16;10236538;28;20149;-74
2022/09/26 05:36:50;;;;;;;8.35;6.85;;;;;;;10.38;94.19;99355.09;10238203;28;20429;-74
2022/09/26 05:41:53;;;;;;;7.78;7.03;;;;;;;10.61;92.62;99342.31;10236097;28;20070;-72
2022/09/26 05:46:56;;;;;;;11.00;7.55;;;;;;;10.61;91.74;99341.44;10235668;28;20070;-74
2022/09/26 05:51:57;;;;;;;8.07;6.90;;;;;;;10.76;91.21;99347.13;10257129;28;20422;-75
2022/09/26 05:56:58;;;;;;;10.70;6.18;;;;;;;10.73;91.41;99334.97;10240746;28;20055;-73
2022/09/26 06:01:59;;;;;;;11.60;7.03;;;;;;;10.71;90.84;99334.25;10237066;28;20092;-75
2022/09/26 06:07:01;;;;;;;11.38;7.35;;;;;;;10.75;92.10;99329.50;10234890;28;20109;-73
2022/09/26 06:12:02;;;;;;;8.45;7.03;;;;;;;10.92;91.16;99331.34;10233968;28;20063;-73
2022/09/26 06:17:04;;;;;;;10.88;6.53;;;;;;;10.86;93.88;99326.63;10235392;28;20054;-73
2022/09/26 06:22:05;;;;;;;10.55;7.40;;;;;;;11.23;89.76;99323.06;10230915;28;20058;-75
2022/09/26 06:27:06;;;;;;;13.98;8.32;;;;;;;11.13;88.89;99323.09;10234435;28;20701;-75
2022/09/26 06:32:08;;;;;;;9.60;7.63;;;;;;;10.84;91.11;99317.09;10233155;28;20065;-75
2022/09/26 06:37:09;;;;;;;8.82;8.00;;;;;;;10.71;92.42;99306.81;10239730;28;20665;-72
2022/09/26 06:42:11;;;;;;;10.38;7.78;;;;;;;10.70;92.99;99305.13;10242102;28;20043;-74
2022/09/26 06:47:12;;;;;;;9.10;7.82;;;;;;;10.96;92.44;99300.78;10255552;28;20050;-73
2022/09/26 06:52:13;;;;;;;10.10;7.85;;;;;;;11.15;89.64;99299.00;10238147;28;20051;-75
2022/09/26 06:57:15;;;;;;;9.48;7.82;;;;;;;11.43;88.25;99304.28;10237667;28;20054;-74
2022/09/26 07:02:16;;;;;;;8.23;7.53;;;;;;;11.57;87.44;99311.72;10242239;28;20070;-74
2022/09/26 07:07:17;;;;;;;9.98;8.98;;;;;;;11.61;86.73;99294.44;10262155;28;20191;-76
2022/09/26 07:12:19;;;;;;;12.77;9.10;;;;;;;11.63;87.31;99300.47;10251111;28;20069;-74
2022/09/26 07:17:20;;;;;;;9.55;7.90;;;;;;;11.46;86.22;99298.63;10272054;28;20051;-74
2022/09/26 07:22:21;;;;;;;11.75;8.88;;;;;;;11.39;87.07;99293.06;10248312;28;20046;-73
2022/09/26 07:27:22;;;;;;;8.20;7.50;;;;;;;11.62;86.33;99295.25;10240884;28;20549;-75
2022/09/26 07:32:24;;;;;;;9.93;8.32;;;;;;;11.93;85.00;99279.69;10242501;28;20094;-74
2022/09/26 07:37:25;;;;;;;8.50;6.90;;;;;;;12.34;82.82;99271.97;10253491;28;20058;-74
2022/09/26 07:42:27;;;;;;;9.25;6.75;;;;;;;12.85;79.71;99263.13;10239480;28;20054;-74
2022/09/26 07:52:51;;;;;;;8.20;6.63;;;;;;;13.12;75.00;99267.41;10239448;28;20518;-75
2022/09/26 07:57:53;;;;;;;9.23;6.18;;;;;;;12.87;76.76;99269.16;10241306;28;20061;-75
2022/09/26 08:02:59;;;;;;;10.45;6.43;;;;;;;12.77;76.60;99263.13;10237695;28;20058;-74
2022/09/26 08:08:01;;;;;;;9.90;7.05;;;;;;;12.89;75.89;99267.16;10243121;28;20126;-75
2022/09/26 08:13:03;;;;;;;7.53;6.15;;;;;;;13.19;74.56;99247.03;10243786;28;20055;-75
2022/09/26 08:18:04;;;;;;;7.18;5.78;;;;;;;13.76;74.61;99243.56;10267282;28;20055;-74
2022/09/26 08:23:05;;;;;;;8.15;6.68;;;;;;;13.97;72.60;99244.88;10260798;28;20055;-75
2022/09/26 08:28:08;;;;;;;10.43;6.10;;;;;;;13.76;71.59;99242.72;10234989;28;20140;-75
2022/09/26 08:33:11;;;;;;;10.57;6.72;;;;;;;13.65;72.93;99240.41;10228908;28;20050;-74
2022/09/26 08:38:14;;;;;;;11.63;6.47;;;;;;;13.44;71.69;99239.91;10230994;28;20055;-74
2022/09/26 08:43:37;;;;;;;8.57;5.15;;;;;;;14.11;69.25;99244.19;10236792;28;20391;-74
2022/09/26 08:49:00;;;;;;;6.05;4.85;;;;;;;14.61;68.58;99233.34;10228950;28;20073;-75
2022/09/26 08:54:39;;;;;;;5.78;4.88;;;;;;;15.29;64.06;99233.59;10265482;28;20046;-77
2022/09/26 08:59:46;;;;;;;4.50;4.10;;;;;;;15.49;63.76;99224.06;10230314;28;20065;-75
2022/09/26 09:04:57;;;;;;;5.70;3.90;;;;;;;15.30;64.24;99219.19;10244936;28;20058;-75
2022/09/26 09:10:03;;;;;;;5.25;4.35;;;;;;;15.58;63.76;99211.38;10233663;28;20062;-73
2022/09/26 09:15:20;;;;;;;4.88;4.25;;;;;;;15.76;63.25;99210.22;10243400;28;20050;-75
2022/09/26 09:20:44;;;;;;;15.73;4.97;;;;;;;15.35;62.14;99220.28;10242249;28;20054;-73
2022/09/26 09:25:50;;;;;;;7.10;3.13;;;;;;;15.37;62.70;99217.44;10229126;28;20050;-79
2022/09/26 09:31:00;;;;;;;8.05;3.13;;;;;;;15.95;61.41;99196.31;10236333;28;20535;-74
2022/09/26 09:36:07;;;;;;;5.43;3.30;;;;;;;15.81;61.57;99192.59;10232572;28;20067;-77
2022/09/26 09:41:19;;;;;;;3.78;2.53;;;;;;;15.84;61.31;99184.19;10242726;28;20626;-75
2022/09/26 09:46:27;;;;;;;3.15;2.70;;;;;;;16.28;59.30;99176.31;10225225;28;20051;-76
2022/09/26 09:51:51;;;;;;;5.63;3.33;;;;;;;16.45;59.05;99167.00;10226647;28;20063;-75
2022/09/26 09:57:30;;;;;;;4.05;2.03;;;;;;;17.56;55.82;99155.09;10228602;28;20067;-76
2022/09/26 10:02:45;;;;;;;7.95;2.20;;;;;;;20.91;48.30;99131.88;10224394;28;20058;-77
2022/09/26 10:07:47;;;;;;;4.38;2.15;;;;;;;21.87;42.57;99125.25;10227875;28;20097;-76
2022/09/26 10:12:50;;;;;;;2.50;1.25;;;;;;;22.05;41.31;99112.75;10230342;28;20058;-73
2022/09/26 10:18:02;;;;;;;2.30;1.75;;;;;;;20.60;44.57;99122.69;10227836;28;20055;-75
2022/09/26 10:23:40;;;;;;;4.03;1.80;;;;;;;19.51;47.75;99114.28;10221529;28;20051;-76
2022/09/26 10:28:48;;;;;;;2.67;1.20;;;;;;;19.28;47.43;99103.94;10225377;28;20057;-74
2022/09/26 10:33:59;;;;;;;1.98;0.98;;;;;;;20.12;46.30;99095.06;10227298;28;20153;-75
2022/09/26 10:44:35;;;;;;;3.08;0.95;;;;;;;17.52;50.21;99086.56;10225054;28;20051;-74
2022/09/26 10:49:51;;;;;;;2.58;1.23;;;;;;;16.41;53.46;99082.50;10230475;28;20394;-79
2022/09/26 10:55:06;;;;;;;2.92;1.48;;;;;;;15.72;55.51;99091.72;10238368;28;20832;-77
2022/09/26 11:00:07;;;;;;;3.22;1.20;;;;;;;15.83;53.86;99085.09;10254863;28;20047;-73
2022/09/26 11:10:31;;;;;;;3.67;1.60;;;;;;;17.97;45.50;99071.72;10242389;28;20046;-77
2022/09/26 11:15:38;;;;;;;2.30;1.48;;;;;;;17.86;46.05;99077.63;10240751;28;20055;-76
2022/09/26 11:21:09;;;;;;;4.95;1.77;;;;;;;18.47;43.62;99074.16;10232908;28;20039;-76
2022/09/26 11:26:43;;;;;;;4.85;1.60;;;;;;;19.53;41.31;99067.19;10233682;28;20356;-74
2022/09/26 11:31:45;;;;;;;6.28;1.50;;;;;;;18.65;43.60;99070.06;10233027;28;20055;-74
2022/09/26 11:37:29;;;;;;;2.67;1.73;;;;;;;17.24;47.04;99074.78;10234568;28;20495;-75
2022/09/26 11:42:53;;;;;;;2.30;1.70;;;;;;;16.71;48.02;99045.59;10230460;28;20374;-75
2022/09/26 11:48:07;;;;;;;1.92;1.63;;;;;;;16.10;50.06;99064.78;10230604;28;20701;-75
2022/09/26 11:53:39;;;;;;;2.80;2.35;;;;;;;15.99;50.60;99051.81;10228060;28;20065;-78
2022/09/26 11:58:58;;;;;;;1.80;1.50;;;;;;;19.18;43.40;99045.00;10237540;28;20516;-75
2022/09/26 12:04:10;;;;;;;3.30;2.00;;;;;;;19.51;42.31;99038.72;10231778;28;20161;-78
2022/09/26 12:09:46;;;;;;;3.78;2.10;;;;;;;17.77;46.00;99019.63;10238770;28;20516;-78
2022/09/26 12:15:21;;;;;;;3.05;1.50;;;;;;;20.48;41.28;99011.72;10228172;28;20063;-77
2022/09/26 12:20:48;;;;;;;2.88;1.38;;;;;;;21.80;36.93;99008.03;10232752;28;20053;-75
2022/09/26 12:25:54;;;;;;;2.90;1.30;;;;;;;19.94;40.43;99001.22;10245518;28;20295;-75
2022/09/26 12:30:59;;;;;;;3.90;1.52;;;;;;;18.23;43.30;98992.06;10261712;28;20062;-73
2022/09/26 12:36:13;;;;;;;1.83;1.23;;;;;;;17.40;45.10;98984.06;10233955;28;20719;-76
2022/09/26 12:41:45;;;;;;;5.75;1.38;;;;;;;17.69;45.66;98961.44;10231610;28;20119;-77
2022/09/26 12:47:08;;;;;;;3.10;1.38;;;;;;;17.53;45.51;98957.22;10233768;28;20072;-74
2022/09/26 12:52:25;;;;;;;1.30;0.90;;;;;;;16.89;47.56;98934.97;10229589;28;20058;-77
2022/09/26 12:57:37;;;;;;;3.25;1.15;;;;;;;16.51;48.56;98926.38;10229549;28;20062;-76
2022/09/26 13:03:08;;;;;;;3.35;1.13;;;;;;;16.61;49.14;98943.81;10233737;28;20066;-75
2022/09/26 13:08:37;;;;;;;3.10;1.17;;;;;;;16.69;49.42;98928.59;10231518;28;20071;-78
2022/09/26 13:14:13;;;;;;;2.80;1.33;;;;;;;17.08;48.27;98921.84;10228869;28;20071;-78
2022/09/26 13:19:45;;;;;;;3.58;1.45;;;;;;;16.32;49.86;98917.13;10233483;28;20074;-77
2022/09/26 13:25:16;;;;;;;3.75;1.08;;;;;;;16.36;51.02;98913.03;10217669;28;20039;-77
2022/09/26 13:30:23;;;;;;;3.70;1.20;;;;;;;16.55;49.77;98911.53;10229020;28;20058;-76
2022/09/26 13:35:27;;;;;;;4.70;1.45;;;;;;;16.55;50.18;98890.88;10235625;28;20047;-79
2022/09/26 13:40:46;;;;;;;6.13;1.50;;;;;;;16.48;50.36;98884.63;10232624;28;20046;-75
2022/09/26 13:45:59;;;;;;;3.17;0.90;;;;;;;16.32;51.70;98880.38;10219635;28;20311;-73
2022/09/26 13:51:14;;;;;;;2.78;0.90;;;;;;;15.86;52.02;98868.19;10242206;28;20058;-74
2022/09/26 13:56:48;;;;;;;2.75;0.93;;;;;;;15.67;53.25;98874.16;10227578;28;20066;-73
2022/09/26 14:02:18;;;;;;;1.45;0.82;;;;;;;15.58;53.17;98859.22;10227425;28;20050;-74
2022/09/26 14:13:18;;;;;;;2.05;0.85;;;;;;;15.37;56.01;98847.41;10230020;28;20069;-72
2022/09/26 14:18:52;;;;;;;2.50;0.90;;;;;;;15.32;56.21;98844.50;10234183;28;20055;-75
2022/09/26 14:24:26;;;;;;;2.28;0.90;;;;;;;15.24;56.54;98831.19;10238287;28;20410;-75
2022/09/26 14:29:31;;;;;;;1.77;1.10;;;;;;;15.33;58.10;98816.66;10261226;28;20051;-76
2022/09/26 14:34:45;;;;;;;2.13;1.08;;;;;;;15.27;59.53;98814.75;10267990;28;20054;-75
2022/09/26 14:39:58;;;;;;;3.40;1.20;;;;;;;15.29;59.66;98804.66;10246374;28;21795;-74
2022/09/26 14:45:13;;;;;;;1.57;0.97;;;;;;;15.42;58.84;98794.06;10243626;28;20107;-75
2022/09/26 14:50:19;;;;;;;2.22;0.90;;;;;;;15.53;58.55;98780.16;10253575;28;20054;-78
2022/09/26 14:55:20;;;;;;;1.52;0.95;;;;;;;15.77;57.90;98770.06;10247232;28;20058;-76
2022/09/26 15:00:39;;;;;;;3.92;1.33;;;;;;;15.67;58.32;98764.19;10244683;28;20050;-75
2022/09/26 15:05:41;;;;;;;3.78;1.13;;;;;;;15.72;58.93;98753.72;10275520;28;20051;-73
2022/09/26 15:10:44;;;;;;;1.65;1.00;;;;;;;15.60;59.91;98739.16;10268673;28;20050;-74
2022/09/26 15:16:13;;;;;;;2.42;1.23;;;;;;;15.47;61.15;98743.38;10267648;28;20046;-75
2022/09/26 15:21:36;;;;;;;3.50;1.15;;;;;;;15.18;62.04;98741.66;10256740;28;20069;-74
2022/09/26 15:26:37;;;;;;;1.45;0.80;;;;;;;15.08;62.75;98733.91;10248355;28;20042;-75
2022/09/26 15:31:42;;;;;;;1.95;1.10;;;;;;;15.06;62.46;98706.50;10243361;28;20050;-76
2022/09/26 15:36:49;;;;;;;1.73;0.88;;;;;;;15.27;61.89;98710.22;10240163;28;21027;-73
2022/09/26 15:47:24;;;;;;;3.33;0.80;;;;;;;14.95;62.54;98688.22;10238982;28;20070;-76
2022/09/26 15:52:26;;;;;;;2.70;0.82;;;;;;;14.73;63.14;98682.84;10237618;28;20054;-77
2022/09/26 15:57:27;;;;;;;1.70;0.90;;;;;;;14.75;63.76;98686.16;10247642;28;20069;-75
2022/09/26 16:02:31;;;;;;;2.00;1.02;;;;;;;14.69;64.29;98678.06;10270439;28;20050;-75
2022/09/26 16:07:33;;;;;;;2.05;0.75;;;;;;;14.63;64.57;98676.97;10240072;28;20057;-73
2022/09/26 16:12:40;;;;;;;3.80;1.05;;;;;;;14.61;64.92;98668.28;10241522;28;20051;-73
2022/09/26 16:17:50;;;;;;;3.53;0.80;;;;;;;14.60;64.51;98669.28;10254988;28;20711;-75
2022/09/26 16:22:54;;;;;;;1.35;0.77;;;;;;;14.42;64.86;98657.09;10251812;28;20059;-76
2022/09/26 16:28:07;;;;;;;1.13;0.60;;;;;;;14.27;64.73;98645.59;10242360;28;20198;-75
2022/09/26 16:33:29;;;;;;;8.00;0.73;;;;;;;14.25;65.18;98643.13;10265952;28;20051;-78
2022/09/26 16:38:33;;;;;;;3.28;1.25;;;;;;;14.18;65.41;98636.84;10272383;28;20857;-75
2022/09/26 16:43:37;;;;;;;2.30;1.00;;;;;;;14.21;65.13;98628.44;10245083;28;20062;-75
2022/09/26 16:48:51;;;;;;;3.22;2.03;;;;;;;14.17;65.47;98624.47;10238331;28;20291;-74
2022/09/26 16:54:07;;;;;;;1.65;0.93;;;;;;;14.12;65.37;98617.00;10246111;28;20720;-76
2022/09/26 16:59:35;;;;;;;1.88;1.05;;;;;;;14.05;65.81;98616.13;10240623;28;20054;-76
2022/09/26 17:04:37;;;;;;;1.77;0.85;;;;;;;13.99;66.06;98595.47;10243655;28;20055;-76
2022/09/26 17:09:40;;;;;;;2.83;1.05;;;;;;;14.04;65.73;98587.69;10242073;28;20074;-76
2022/09/26 17:14:45;;;;;;;1.33;0.70;;;;;;;14.00;66.11;98589.06;10248848;28;20042;-78
2022/09/26 17:19:50;;;;;;;0.73;0.65;;;;;;;13.91;66.63;98582.16;10296180;28;20305;-76
2022/09/26 17:24:59;;;;;;;2.05;0.77;;;;;;;13.87;69.76;98580.88;10257972;28;20105;-77
2022/09/26 17:30:03;;;;;;;1.25;0.77;;;;;;;13.72;70.46;98581.72;10280495;28;20131;-74
2022/09/26 17:35:12;;;;;;;;;;;;;;;13.64;71.91;98579.13;10265974;28;20189;-76
2022/09/26 17:40:22;;;;;;;3.33;1.00;;;;;;;13.59;72.60;98579.69;10298051;28;19930;-78
2022/09/26 17:45:31;;;;;;;3.05;1.35;;;;;;;13.60;73.60;98561.78;10301291;28;20053;-77
2022/09/26 17:50:34;;;;;;;3.13;1.20;;;;;;;13.60;73.25;98562.63;10298711;28;20119;-74
2022/09/26 17:55:35;;;;;;;1.48;0.88;;;;;;;13.57;73.13;98556.81;10301270;28;20118;-74
2022/09/26 18:00:39;;;;;;;3.45;1.40;;;;;;;13.54;74.07;98549.16;10297664;28;20050;-78
2022/09/26 18:05:41;;;;;;;2.08;1.63;;;;;;;13.51;75.58;98565.56;10304494;28;20042;-78
2022/09/26 18:10:53;;;;;;;2.25;1.55;;;;;;;13.35;78.13;98561.25;10301282;28;20130;-76
2022/09/26 18:15:57;;;;;;;2.92;1.55;;;;;;;13.27;81.29;98575.50;10300641;28;20042;-79
2022/09/26 18:21:02;;;;;;;3.97;2.30;;;;;;;13.18;83.52;98576.56;10292970;28;20067;-75
2022/09/26 18:26:06;;;;;;;2.85;1.80;;;;;;;13.11;85.59;98576.47;10244294;28;20220;-72
2022/09/26 18:31:10;;;;;;;3.65;2.03;;;;;;;13.03;87.28;98569.34;10252282;28;20453;-74
2022/09/26 18:36:11;;;;;;;2.25;1.48;;;;;;;12.97;86.13;98570.09;10283512;28;20061;-73
2022/09/26 18:41:15;;;;;;;4.90;1.70;;;;;;;12.98;87.47;98571.72;10256458;28;20509;-75
2022/09/26 18:46:17;;;;;;;5.05;2.00;;;;;;;12.98;86.43;98566.38;10219484;28;20062;-76
2022/09/26 18:51:19;;;;;;;3.88;2.00;;;;;;;12.90;87.06;98561.13;10240337;28;20058;-74
2022/09/26 19:01:42;;;;;;;4.30;1.90;;;;;;;12.84;87.51;98567.19;10253084;28;20545;-74
2022/09/26 19:06:48;;;;;;;2.70;1.58;;;;;;;12.80;88.15;98561.34;10257807;28;20561;-76
2022/09/26 19:11:49;;;;;;;2.22;1.65;;;;;;;12.71;90.91;98555.25;10258447;28;20054;-76
2022/09/26 19:16:51;;;;;;;3.17;1.83;;;;;;;12.67;90.91;98555.78;10267690;28;20057;-73
2022/09/26 19:21:53;;;;;;;1.45;1.35;;;;;;;12.64;90.12;98557.00;10249582;28;20055;-75
2022/09/26 19:26:58;;;;;;;2.28;1.10;;;;;;;12.49;88.62;98562.25;10248421;28;20080;-73
2022/09/26 19:32:05;;;;;;;2.38;1.30;;;;;;;12.40;90.79;98541.13;10260868;28;20098;-75
2022/09/26 19:37:08;;;;;;;2.60;1.27;;;;;;;12.34;90.31;98548.00;10307004;28;20055;-76
2022/09/26 19:42:10;;;;;;;2.30;2.03;;;;;;;12.32;90.52;98529.50;10314859;28;20516;-78
2022/09/26 19:47:19;;;;;;;1.85;1.55;;;;;;;12.25;90.48;98528.56;10291823;28;20058;-74
2022/09/26 19:52:21;;;;;;;2.35;1.40;;;;;;;12.15;90.98;98511.97;10263119;28;20038;-73
2022/09/26 19:57:23;;;;;;;3.58;1.65;;;;;;;12.18;91.13;98507.09;10301148;28;20129;-77
2022/09/26 20:02:30;;;;;;;1.70;1.10;;;;;;;12.12;92.19;98506.97;10302672;28;20039;-75
2022/09/26 20:07:31;;;;;;;2.47;1.05;;;;;;;12.09;91.69;98502.81;10277586;28;20047;-75
2022/09/26 20:12:33;;;;;;;2.60;1.42;;;;;;;11.95;91.37;98483.06;10247065;28;20055;-75
2022/09/26 20:17:36;;;;;;;2.72;1.00;;;;;;;12.02;92.04;98485.84;10254549;28;20109;-75
2022/09/26 20:22:38;;;;;;;3.13;1.38;;;;;;;11.87;92.14;98476.94;10252644;28;20058;-76
2022/09/26 20:27:40;;;;;;;2.60;1.33;;;;;;;11.96;92.18;98471.38;10254924;28;20054;-76
2022/09/26 20:32:41;;;;;;;1.45;0.90;;;;;;;11.66;93.30;98455.22;10299133;28;20054;-79
2022/09/26 20:37:43;;;;;;;4.00;1.23;;;;;;;11.72;93.10;98442.19;10258264;28;20517;-74
2022/09/26 20:42:49;;;;;;;2.00;1.13;;;;;;;11.74;93.23;98434.84;10254441;28;20050;-75
2022/09/26 20:47:50;;;;;;;1.30;0.82;;;;;;;11.66;94.17;98425.91;10255867;28;20065;-77
2022/09/26 20:52:51;;;;;;;2.40;0.85;;;;;;;11.58;95.02;98415.28;10267019;28;22309;-76
2022/09/26 20:57:53;;;;;;;2.08;1.05;;;;;;;11.52;95.07;98415.97;10252436;28;20053;-77
2022/09/26 21:02:55;;;;;;;3.17;0.90;;;;;;;11.46;96.07;98401.50;10255327;28;20061;-76
2022/09/26 21:07:59;;;;;;;1.83;0.80;;;;;;;11.40;96.41;98412.03;10253063;28;20047;-75
2022/09/26 21:13:01;;;;;;;2.42;1.10;;;;;;;11.30;97.18;98397.09;10253038;28;20051;-75
2022/09/26 21:18:02;;;;;;;1.92;1.25;;;;;;;11.29;97.57;98392.78;10250246;28;20050;-74
2022/09/26 21:23:04;;;;;;;4.55;0.80;;;;;;;11.27;97.33;98386.81;10248870;28;20054;-76
2022/09/26 21:28:19;;;;;;;2.53;0.98;;;;;;;11.17;98.37;98378.19;10246091;28;20051;-75
2022/09/26 21:33:21;;;;;;;2.75;1.23;;;;;;;11.18;98.09;98369.19;10263708;28;20039;-73
2022/09/26 21:38:24;;;;;;;1.13;0.68;;;;;;;11.18;97.66;98369.19;10254276;28;20042;-76
2022/09/26 21:43:29;;;;;;;1.33;0.93;;;;;;;11.32;99.50;98360.47;10248675;28;20054;-74
2022/09/26 21:48:31;;;;;;;1.35;0.70;;;;;;;11.29;97.62;98347.50;10251939;28;20046;-73
2022/09/26 21:53:44;;;;;;;1.48;0.88;;;;;;;11.19;97.56;98330.91;10244587;28;20061;-73
2022/09/26 21:58:47;;;;;;;2.35;0.80;;;;;;;11.26;97.61;98323.88;10262059;28;20059;-73
2022/09/26 22:03:48;;;;;;;1.58;0.80;;;;;;;11.14;97.58;98325.28;10244287;28;20070;-75
2022/09/26 22:08:50;;;;;;;0.73;0.50;;;;;;;11.21;97.74;98331.53;10242930;28;20070;-76
2022/09/26 22:13:51;;;;;;;3.28;0.80;;;;;;;11.24;97.27;98309.88;10244066;28;20490;-75
2022/09/26 22:18:53;;;;;;;1.67;0.80;;;;;;;11.17;96.83;98306.28;10238938;28;20467;-73
2022/09/26 22:23:54;;;;;;;1.02;0.70;;;;;;;11.13;96.47;98307.63;10241896;28;20055;-73
2022/09/26 22:28:55;;;;;;;1.83;0.82;;;;;;;11.10;98.30;98294.66;10244759;28;20717;-73
2022/09/26 22:33:58;;;;;;;2.03;0.88;;;;;;;11.01;99.78;98279.75;10246474;28;20047;-75
2022/09/26 22:39:00;;;;;;;1.33;0.60;;;;;;;11.02;99.58;98273.41;10246216;28;20051;-76
2022/09/26 22:44:02;;;;;;;2.15;0.80;;;;;;;10.92;100.00;98282.44;10247024;28;20043;-74
2022/09/26 22:49:05;;;;;;;1.17;0.50;;;;;;;10.93;100.00;98273.47;10251758;28;20062;-75
2022/09/26 22:54:06;;;;;;;2.03;0.60;;;;;;;10.95;100.00;98286.59;10267299;28;20061;-73
2022/09/26 22:59:08;;;;;;;0.90;0.50;;;;;;;10.96;100.00;98258.97;10263131;28;20050;-76
2022/09/26 23:04:10;;;;;;;1.17;0.60;;;;;;;10.91;100.00;98248.00;10271211;28;20110;-77
2022/09/26 23:09:11;;;;;;;2.80;0.75;;;;;;;11.07;100.00;98247.09;10290489;28;20051;-78
2022/09/26 23:14:13;;;;;;;1.77;0.95;;;;;;;11.05;99.91;98241.09;10276788;28;20055;-78
2022/09/26 23:19:15;;;;;;;1.95;1.13;;;;;;;11.09;100.00;98234.44;10294701;28;20121;-78
2022/09/26 23:24:17;;;;;;;2.17;0.80;;;;;;;11.02;100.00;98213.03;10270091;28;20047;-75
2022/09/26 23:29:18;;;;;;;1.70;0.50;;;;;;;11.02;100.00;98222.81;10254316;28;20051;-75
2022/09/26 23:34:19;;;;;;;2.60;0.90;;;;;;;11.03;100.00;98219.16;10252012;28;20063;-75
2022/09/26 23:39:21;;;;;;;0.90;0.60;;;;;;;11.01;100.00;98218.53;10263915;28;20047;-75
2022/09/26 23:44:22;;;;;;;0.70;0.43;;;;;;;10.97;100.00;98207.38;10279492;28;20047;-77
2022/09/26 23:49:24;;;;;;;2.25;0.60;;;;;;;10.93;100.00;98214.91;10272770;28;20657;-74
2022/09/26 23:54:25;;;;;;;2.55;0.80;;;;;;;10.95;100.00;98206.72;10249564;28;20051;-74
2022/09/26 23:59:27;;;;;;;0.93;0.45;;;;;;;10.89;100.00;98196.78;10246077;28;20059;-73
